createdAt,value
2019-02-28T06:19:09.385Z,963.3
2019-02-28T06:29:12.908Z,967.8
2019-02-28T11:02:22.048Z,969.2
2019-02-28T11:12:25.553Z,968.9
2019-02-28T11:22:29.055Z,968.8
2019-02-28T11:32:32.556Z,968.6
2019-02-28T11:42:36.064Z,968.7
2019-02-28T11:52:39.544Z,969.1
2019-02-28T12:02:43.081Z,969.3
2019-02-28T12:12:46.595Z,968.8
2019-02-28T12:22:50.400Z,968.4
2019-02-28T12:32:53.930Z,968
2019-02-28T12:42:57.473Z,967.8
2019-02-28T12:53:01.007Z,967.4
2019-02-28T13:03:04.506Z,967.3
2019-02-28T13:13:08.567Z,967
2019-02-28T13:23:12.091Z,966.9
2019-02-28T13:33:16.565Z,966.6
2019-02-28T13:43:23.259Z,966.4
2019-02-28T13:53:32.190Z,966.1
2019-02-28T14:03:35.667Z,966
2019-02-28T14:13:39.664Z,965.8
2019-02-28T14:23:43.166Z,965.6
2019-02-28T14:33:46.681Z,965.4
2019-02-28T14:43:57.104Z,965.3
2019-02-28T14:54:00.624Z,965.1
2019-02-28T15:04:04.122Z,965
2019-02-28T15:14:10.084Z,964.8
2019-02-28T15:24:13.591Z,964.8
2019-02-28T15:34:17.100Z,964.7
2019-02-28T15:44:20.631Z,964.7
2019-02-28T15:54:26.566Z,964.4
2019-02-28T16:04:30.072Z,965.5
2019-02-28T16:14:36.149Z,966.2
2019-02-28T16:24:40.938Z,966
2019-02-28T16:34:44.468Z,965.7
2019-02-28T16:44:47.983Z,965.7
2019-02-28T16:54:57.281Z,965.8
2019-02-28T17:05:00.767Z,965.8
2019-02-28T17:15:04.280Z,966
2019-02-28T17:25:07.804Z,966
2019-02-28T17:35:11.309Z,966.2
2019-02-28T17:45:16.777Z,966.2
2019-02-28T17:55:20.325Z,966.4
2019-02-28T18:05:37.324Z,966.4
2019-02-28T18:15:47.159Z,966.4
2019-02-28T18:25:53.720Z,966.4
2019-02-28T18:35:57.239Z,966.4
2019-02-28T18:46:00.739Z,966.6
2019-02-28T18:56:04.242Z,966.8
2019-02-28T19:06:07.744Z,966.8
2019-02-28T19:16:11.257Z,967.1
2019-02-28T19:26:14.783Z,967.3
2019-02-28T19:36:18.298Z,967.5
2019-02-28T19:46:21.795Z,967.8
2019-02-28T19:56:25.317Z,967.9
2019-02-28T20:06:28.810Z,967.9
2019-02-28T20:16:32.315Z,968.2
2019-02-28T20:26:35.824Z,968.2
2019-02-28T20:36:39.356Z,968.4
2019-02-28T20:46:42.860Z,968.3
2019-02-28T20:56:46.346Z,968.4
2019-02-28T21:06:49.857Z,968.4
2019-02-28T21:16:53.366Z,968.6
2019-02-28T21:26:56.896Z,968.7
2019-02-28T21:37:00.405Z,968.7
2019-02-28T21:47:03.980Z,968.6
2019-02-28T21:57:07.512Z,968.6
2019-02-28T22:07:11.016Z,968.3
2019-02-28T22:17:14.530Z,968.3
2019-02-28T22:27:18.043Z,968.3
2019-02-28T22:37:21.532Z,968.5
2019-02-28T22:47:25.044Z,968.4
2019-02-28T22:57:28.535Z,968.2
2019-02-28T23:07:32.030Z,968.2
2019-02-28T23:17:35.525Z,968.1
2019-02-28T23:27:39.035Z,968.1
2019-02-28T23:37:42.541Z,968.2
2019-02-28T23:47:46.065Z,967.9
2019-02-28T23:57:49.589Z,967.9
